Time;durP1;ratioP1;P1;durP2;ratioP2;P2;SDS_P1;SDS_P2;PMS_P1;PMS_P2;Temp;Humidity;BMP_temperature;BMP_pressure;BME280_temperature;BME280_humidity;BME280_pressure;Samples;Min_cycle;Max_cycle;Signal;HPM_P1;HPM_P2
2022/02/12 00:00:24;;;;;;;8.57;4.75;;;0.20;99.90;;;;;;5030038;28;20201;-81
2022/02/12 00:02:52;;;;;;;13.20;5.68;;;0.20;99.90;;;;;;5036665;28;20214;-80
2022/02/12 00:05:19;;;;;;;12.65;5.28;;;0.10;99.90;;;;;;5020129;28;20224;-80
2022/02/12 00:07:47;;;;;;;11.48;5.18;;;0.10;99.90;;;;;;5036586;28;20201;-80
2022/02/12 00:10:14;;;;;;;7.63;5.38;;;0.10;99.90;;;;;;5023329;28;20205;-81
2022/02/12 00:12:41;;;;;;;6.55;4.70;;;0.10;99.90;;;;;;5026463;28;20301;-81
2022/02/12 00:15:08;;;;;;;11.30;4.53;;;0.00;99.90;;;;;;5034401;28;20729;-81
2022/02/12 00:17:35;;;;;;;10.77;5.00;;;0.00;99.90;;;;;;5038638;28;20225;-81
2022/02/12 00:20:03;;;;;;;8.05;4.47;;;0.00;99.90;;;;;;5028559;28;20658;-81
2022/02/12 00:22:29;;;;;;;10.45;5.50;;;0.00;99.90;;;;;;5037848;28;20231;-82
2022/02/12 00:24:57;;;;;;;12.02;6.00;;;-0.10;99.90;;;;;;5036080;28;20647;-82
2022/02/12 00:27:24;;;;;;;9.90;4.95;;;-0.10;99.90;;;;;;5033703;28;20197;-81
2022/02/12 00:29:51;;;;;;;9.80;4.30;;;-0.10;99.90;;;;;;5024374;28;20208;-81
2022/02/12 00:32:18;;;;;;;13.35;5.38;;;-0.10;99.90;;;;;;5022395;28;20232;-82
2022/02/12 00:34:45;;;;;;;8.73;4.40;;;-0.20;99.90;;;;;;5037106;28;20226;-82
2022/02/12 00:37:12;;;;;;;6.97;4.15;;;-0.20;99.90;;;;;;5038553;28;20225;-81
2022/02/12 00:39:39;;;;;;;8.65;4.40;;;-0.20;99.90;;;;;;5027201;28;20208;-80
2022/02/12 00:42:07;;;;;;;12.63;4.30;;;-0.20;99.90;;;;;;5034146;28;20207;-82
2022/02/12 00:44:34;;;;;;;12.43;5.72;;;-0.20;99.90;;;;;;5037316;28;20224;-81
2022/02/12 00:47:01;;;;;;;13.52;5.57;;;-0.20;99.90;;;;;;5037600;28;20212;-81
2022/02/12 00:49:28;;;;;;;9.73;3.72;;;-0.20;99.90;;;;;;5036209;28;20222;-82
2022/02/12 00:51:54;;;;;;;13.98;5.10;;;-0.30;99.90;;;;;;5038560;28;20243;-81
2022/02/12 00:54:22;;;;;;;13.48;4.55;;;-0.30;99.90;;;;;;5037251;28;20200;-82
2022/02/12 00:56:48;;;;;;;11.45;4.75;;;-0.30;99.90;;;;;;5038216;28;20229;-81
2022/02/12 00:59:17;;;;;;;9.88;5.10;;;-0.30;99.90;;;;;;5031321;28;20217;-81
2022/02/12 01:01:43;;;;;;;9.07;3.88;;;-0.30;99.90;;;;;;5030665;28;20744;-82
2022/02/12 01:04:10;;;;;;;11.23;4.40;;;-0.30;99.90;;;;;;5035278;28;20202;-81
2022/02/12 01:06:37;;;;;;;6.20;3.60;;;-0.30;99.90;;;;;;5038223;28;20267;-82
2022/02/12 01:09:04;;;;;;;8.88;3.92;;;-0.30;99.90;;;;;;5029860;28;20204;-82
2022/02/12 01:11:31;;;;;;;6.95;3.88;;;-0.30;99.90;;;;;;5025256;28;20224;-82
2022/02/12 01:13:58;;;;;;;13.90;4.10;;;-0.30;99.90;;;;;;5019974;28;20210;-81
2022/02/12 01:16:26;;;;;;;14.32;4.82;;;-0.30;99.90;;;;;;5026737;28;20221;-81
2022/02/12 01:18:53;;;;;;;11.07;3.85;;;-0.30;99.90;;;;;;5038107;28;20682;-82
2022/02/12 01:21:20;;;;;;;8.73;3.50;;;-0.30;99.90;;;;;;5035578;28;20218;-81
2022/02/12 01:23:47;;;;;;;10.55;3.78;;;-0.30;99.90;;;;;;5023313;28;20204;-82
2022/02/12 01:26:14;;;;;;;6.95;3.22;;;-0.30;99.90;;;;;;5036536;28;20221;-81
2022/02/12 01:28:40;;;;;;;8.60;3.60;;;-0.30;99.90;;;;;;5027556;28;20274;-81
2022/02/12 01:31:07;;;;;;;9.52;4.20;;;-0.40;99.90;;;;;;5030684;28;20631;-81
2022/02/12 01:33:36;;;;;;;6.03;3.70;;;-0.40;99.90;;;;;;5035360;28;20228;-81
2022/02/12 01:36:03;;;;;;;9.07;3.53;;;-0.40;99.90;;;;;;5016831;28;20744;-81
2022/02/12 01:38:30;;;;;;;9.15;3.20;;;-0.40;99.90;;;;;;5020274;28;20234;-81
2022/02/12 01:40:57;;;;;;;6.55;3.50;;;-0.40;99.90;;;;;;5036187;28;20199;-81
2022/02/12 01:43:23;;;;;;;10.95;4.28;;;-0.40;99.90;;;;;;5027173;28;20197;-81
2022/02/12 01:45:50;;;;;;;10.88;3.88;;;-0.40;99.90;;;;;;5018024;28;20232;-80
2022/02/12 01:48:18;;;;;;;8.57;3.40;;;-0.40;99.90;;;;;;5032085;28;20223;-81
2022/02/12 01:50:50;;;;;;;7.55;3.65;;;-0.40;99.90;;;;;;5018637;28;20199;-81
2022/02/12 01:53:17;;;;;;;6.82;3.72;;;-0.40;99.90;;;;;;5030215;28;20199;-81
2022/02/12 01:55:44;;;;;;;9.15;3.78;;;-0.50;99.90;;;;;;5017629;28;20223;-81
2022/02/12 01:58:11;;;;;;;12.07;3.70;;;-0.50;99.90;;;;;;5029397;28;20227;-81
2022/02/12 02:00:39;;;;;;;10.18;3.83;;;-0.40;99.90;;;;;;5030606;28;20277;-81
2022/02/12 02:03:06;;;;;;;6.50;3.45;;;-0.40;99.90;;;;;;5029840;28;20209;-81
2022/02/12 02:05:33;;;;;;;7.55;3.35;;;-0.50;99.90;;;;;;5018788;28;20230;-81
2022/02/12 02:08:02;;;;;;;7.57;2.45;;;-0.50;99.90;;;;;;5029010;28;20225;-81
2022/02/12 02:10:29;;;;;;;10.35;3.20;;;-0.50;99.90;;;;;;5029879;28;20199;-82
2022/02/12 02:12:56;;;;;;;6.88;3.22;;;-0.50;99.90;;;;;;5035408;28;20205;-80
2022/02/12 02:15:23;;;;;;;9.68;2.80;;;-0.50;99.90;;;;;;5031790;28;20232;-80
2022/02/12 02:17:50;;;;;;;8.13;3.40;;;-0.50;99.90;;;;;;5029307;28;20236;-81
2022/02/12 02:20:17;;;;;;;6.75;3.20;;;-0.60;99.90;;;;;;5038864;28;20210;-81
2022/02/12 02:22:53;;;;;;;9.32;3.17;;;-0.60;99.90;;;;;;5034770;28;20207;-80
2022/02/12 02:25:20;;;;;;;15.82;3.22;;;-0.60;99.90;;;;;;5017730;28;20275;-82
2022/02/12 02:27:47;;;;;;;9.27;3.95;;;-0.60;99.90;;;;;;5027208;28;20205;-81
2022/02/12 02:30:14;;;;;;;5.53;3.10;;;-0.60;99.90;;;;;;5036400;28;20258;-80
2022/02/12 02:32:42;;;;;;;8.95;3.70;;;-0.60;99.90;;;;;;5037395;28;20203;-82
2022/02/12 02:35:11;;;;;;;11.30;4.15;;;-0.60;99.90;;;;;;5033881;28;20667;-81
2022/02/12 02:37:38;;;;;;;6.30;3.28;;;-0.70;99.90;;;;;;5036067;28;20234;-81
2022/02/12 02:40:12;;;;;;;10.98;3.65;;;-0.70;99.90;;;;;;5034741;28;20669;-81
2022/02/12 02:42:41;;;;;;;7.00;3.10;;;-0.80;99.90;;;;;;5037606;28;20195;-80
2022/02/12 02:45:09;;;;;;;19.02;5.78;;;-0.70;99.90;;;;;;5039889;28;20236;-81
2022/02/12 02:47:42;;;;;;;12.60;3.78;;;-0.70;99.90;;;;;;5030156;28;20233;-81
2022/02/12 02:58:21;;;;;;;6.93;3.55;;;-0.80;99.90;;;;;;5021006;28;20309;-80
2022/02/12 03:00:48;;;;;;;9.88;3.00;;;-0.80;99.90;;;;;;5034864;28;20257;-81
2022/02/12 03:03:15;;;;;;;7.75;3.33;;;-0.80;99.90;;;;;;5038389;28;20217;-79
2022/02/12 03:05:42;;;;;;;13.43;3.55;;;-0.80;99.90;;;;;;5039427;28;20741;-81
2022/02/12 03:08:09;;;;;;;5.53;2.75;;;-0.80;99.90;;;;;;5039116;28;20210;-81
2022/02/12 03:10:37;;;;;;;7.53;3.38;;;-0.80;99.90;;;;;;5022567;28;20206;-80
2022/02/12 03:13:04;;;;;;;10.40;3.40;;;-0.80;99.90;;;;;;5037900;28;20211;-81
2022/02/12 03:15:30;;;;;;;7.10;3.15;;;-0.80;99.90;;;;;;5039862;28;20256;-81
2022/02/12 03:17:57;;;;;;;8.65;3.40;;;-0.80;99.90;;;;;;5026768;28;20207;-81
2022/02/12 03:20:24;;;;;;;6.10;3.13;;;-0.90;99.90;;;;;;5031426;28;20198;-81
2022/02/12 03:22:51;;;;;;;10.77;3.95;;;-0.90;99.90;;;;;;5038560;28;20216;-80
2022/02/12 03:25:18;;;;;;;7.20;3.28;;;-0.90;99.90;;;;;;5037888;28;20685;-81
2022/02/12 03:27:52;;;;;;;7.03;3.42;;;-0.80;99.90;;;;;;5038175;28;20199;-81
2022/02/12 03:30:19;;;;;;;9.88;3.60;;;-0.90;99.90;;;;;;5026532;28;20216;-81
2022/02/12 03:32:46;;;;;;;6.75;3.03;;;-0.90;99.90;;;;;;5033485;28;20215;-81
2022/02/12 03:35:13;;;;;;;5.95;2.83;;;-0.90;99.90;;;;;;5037358;28;20230;-82
2022/02/12 03:37:39;;;;;;;7.38;3.03;;;-0.90;99.90;;;;;;5037762;28;20218;-81
2022/02/12 03:40:08;;;;;;;10.00;3.45;;;-0.90;99.90;;;;;;5026956;28;20689;-82
2022/02/12 03:42:35;;;;;;;5.20;2.60;;;-0.90;99.90;;;;;;5033620;28;20203;-81
2022/02/12 03:45:04;;;;;;;6.65;3.38;;;-0.90;99.90;;;;;;5036443;28;20716;-81
2022/02/12 03:47:31;;;;;;;7.53;2.90;;;-0.90;99.90;;;;;;5037438;28;20206;-81
2022/02/12 03:49:58;;;;;;;5.22;2.35;;;-0.90;99.90;;;;;;5025330;28;20220;-80
2022/02/12 03:52:25;;;;;;;9.93;3.35;;;-0.90;99.90;;;;;;5027938;28;20206;-81
2022/02/12 03:54:52;;;;;;;5.35;2.80;;;-0.90;99.90;;;;;;5036963;28;20741;-81
2022/02/12 03:57:18;;;;;;;7.80;3.42;;;-0.90;99.90;;;;;;5037101;28;20211;-83
2022/02/12 03:59:45;;;;;;;6.53;2.70;;;-0.90;99.90;;;;;;5031399;28;20225;-81
2022/02/12 04:02:13;;;;;;;7.05;3.33;;;-0.90;99.90;;;;;;5024989;28;20230;-81
2022/02/12 04:04:40;;;;;;;7.95;3.20;;;-0.90;99.90;;;;;;5036615;28;20229;-81
2022/02/12 04:07:07;;;;;;;8.27;3.38;;;-0.90;99.90;;;;;;5037712;28;20227;-80
2022/02/12 04:09:34;;;;;;;7.22;2.78;;;-0.90;99.90;;;;;;5036099;28;20564;-81
2022/02/12 04:12:01;;;;;;;8.18;3.20;;;-0.90;99.90;;;;;;5023993;28;20233;-81
2022/02/12 04:14:27;;;;;;;5.85;2.85;;;-0.90;99.90;;;;;;5017071;28;20245;-82
2022/02/12 04:16:54;;;;;;;9.15;3.67;;;-0.90;99.90;;;;;;5030445;28;20205;-82
2022/02/12 04:19:22;;;;;;;8.57;3.10;;;-0.90;99.90;;;;;;5022808;28;20215;-80
2022/02/12 04:21:49;;;;;;;10.35;3.17;;;-0.90;99.90;;;;;;5037492;28;20692;-80
2022/02/12 04:24:16;;;;;;;7.32;3.13;;;-0.90;99.90;;;;;;5027669;28;20230;-81
2022/02/12 04:26:43;;;;;;;24.55;4.70;;;-0.90;99.90;;;;;;5027663;28;20220;-80
2022/02/12 04:29:09;;;;;;;5.35;2.80;;;-0.80;99.90;;;;;;5035010;28;20205;-80
2022/02/12 04:31:37;;;;;;;6.07;3.33;;;-0.80;99.90;;;;;;5033020;28;20192;-80
2022/02/12 04:34:03;;;;;;;10.05;4.57;;;-0.80;99.90;;;;;;5038084;28;20203;-81
2022/02/12 04:36:32;;;;;;;9.68;3.40;;;-0.80;99.90;;;;;;5036117;28;20327;-80
2022/02/12 04:38:58;;;;;;;7.50;3.03;;;-0.80;99.90;;;;;;5036225;28;20212;-81
2022/02/12 04:41:25;;;;;;;6.97;3.35;;;-0.80;99.90;;;;;;5034455;28;20285;-80
2022/02/12 04:43:52;;;;;;;3.20;2.53;;;-0.80;99.90;;;;;;5037426;28;20255;-81
2022/02/12 04:46:19;;;;;;;6.47;3.33;;;-0.80;99.90;;;;;;5036963;28;20228;-81
2022/02/12 04:48:49;;;;;;;9.75;4.50;;;-0.80;99.90;;;;;;5032440;28;20199;-81
2022/02/12 04:51:16;;;;;;;7.82;3.03;;;-0.80;99.90;;;;;;5034011;28;20250;-80
2022/02/12 04:53:45;;;;;;;7.13;3.63;;;-0.80;99.90;;;;;;5031676;28;20625;-81
2022/02/12 04:56:11;;;;;;;8.00;3.28;;;-0.80;99.90;;;;;;5029000;28;20293;-81
2022/02/12 04:58:38;;;;;;;7.38;3.38;;;-0.80;99.90;;;;;;5033959;28;20228;-81
2022/02/12 05:01:05;;;;;;;11.48;2.60;;;-0.80;99.90;;;;;;5032189;28;20196;-81
2022/02/12 05:03:32;;;;;;;7.25;2.78;;;-0.80;99.90;;;;;;5032340;28;20219;-81
2022/02/12 05:05:58;;;;;;;4.40;2.80;;;-0.80;99.90;;;;;;5021980;28;20671;-80
2022/02/12 05:08:25;;;;;;;8.52;3.72;;;-0.80;99.90;;;;;;5034919;28;20202;-81
2022/02/12 05:10:53;;;;;;;8.40;3.13;;;-0.80;99.90;;;;;;5030384;28;20203;-83
2022/02/12 05:13:20;;;;;;;6.03;2.92;;;-0.80;99.90;;;;;;5017927;28;20203;-81
2022/02/12 05:15:47;;;;;;;10.52;3.22;;;-0.80;99.90;;;;;;5023731;28;20220;-81
2022/02/12 05:18:14;;;;;;;14.00;3.42;;;-0.80;99.90;;;;;;5019790;28;20221;-81
2022/02/12 05:20:40;;;;;;;12.27;3.50;;;-0.80;99.90;;;;;;5022107;28;20222;-82
2022/02/12 05:23:07;;;;;;;5.35;2.90;;;-0.80;99.90;;;;;;5035384;28;20209;-81
2022/02/12 05:25:34;;;;;;;8.25;3.10;;;-0.80;99.90;;;;;;5034154;28;20239;-81
2022/02/12 05:28:02;;;;;;;9.43;2.60;;;-0.80;99.90;;;;;;5036457;28;20206;-81
2022/02/12 05:30:29;;;;;;;6.97;3.60;;;-0.80;99.90;;;;;;5026269;28;20204;-80
2022/02/12 05:32:55;;;;;;;8.02;2.65;;;-0.90;99.90;;;;;;5035743;28;20565;-79
2022/02/12 05:35:22;;;;;;;9.70;3.13;;;-0.90;99.90;;;;;;5033409;28;20327;-82
2022/02/12 05:37:49;;;;;;;11.10;2.97;;;-0.90;99.90;;;;;;5036503;28;20208;-82
2022/02/12 05:40:16;;;;;;;14.13;3.25;;;-0.90;99.90;;;;;;5027109;28;20221;-81
2022/02/12 05:42:43;;;;;;;7.20;3.30;;;-0.90;99.90;;;;;;5037982;28;20213;-81
2022/02/12 05:45:11;;;;;;;7.45;3.10;;;-0.90;99.90;;;;;;5018494;28;20232;-83
2022/02/12 05:47:39;;;;;;;7.57;3.03;;;-0.90;99.90;;;;;;5033600;28;20585;-84
2022/02/12 05:50:07;;;;;;;9.68;2.55;;;-0.90;99.90;;;;;;5023658;28;20196;-84
2022/02/12 05:52:33;;;;;;;10.05;3.70;;;-0.90;99.90;;;;;;5034044;28;20211;-84
2022/02/12 05:55:00;;;;;;;7.22;2.85;;;-0.90;99.90;;;;;;5032954;28;20242;-84
2022/02/12 05:57:27;;;;;;;8.90;2.95;;;-0.90;99.90;;;;;;5034062;28;20202;-84
2022/02/12 05:59:54;;;;;;;10.27;3.70;;;-0.90;99.90;;;;;;5023534;28;20222;-84
2022/02/12 06:02:22;;;;;;;7.18;3.05;;;-0.90;99.90;;;;;;5034301;28;20208;-82
2022/02/12 06:04:49;;;;;;;8.95;2.92;;;-0.90;99.90;;;;;;5021941;28;20374;-82
2022/02/12 06:07:16;;;;;;;8.15;3.47;;;-0.90;99.90;;;;;;5034080;28;20201;-84
2022/02/12 06:09:43;;;;;;;9.75;3.25;;;-0.80;99.90;;;;;;5032157;28;20195;-83
2022/02/12 06:12:10;;;;;;;4.78;2.75;;;-0.90;99.90;;;;;;5014015;28;20276;-83
2022/02/12 06:14:37;;;;;;;12.85;2.55;;;-0.90;99.90;;;;;;5014051;28;20219;-83
2022/02/12 06:17:04;;;;;;;10.13;2.70;;;-0.90;99.90;;;;;;5015909;28;20202;-84
2022/02/12 06:19:32;;;;;;;9.25;2.63;;;-0.80;99.90;;;;;;5028021;28;20314;-83
2022/02/12 06:21:59;;;;;;;4.50;2.88;;;-0.90;99.90;;;;;;5017404;28;20227;-83
2022/02/12 06:24:26;;;;;;;16.45;3.25;;;-0.90;99.90;;;;;;5017417;28;20211;-83
2022/02/12 06:26:56;;;;;;;5.18;2.85;;;-0.80;99.90;;;;;;5017699;28;20199;-84
2022/02/12 06:29:23;;;;;;;6.22;2.60;;;-0.90;99.90;;;;;;5035084;28;20202;-83
2022/02/12 06:31:50;;;;;;;7.38;2.97;;;-0.90;99.90;;;;;;5018348;28;20203;-83
2022/02/12 06:34:18;;;;;;;6.93;2.88;;;-0.90;99.90;;;;;;5031302;28;20207;-84
2022/02/12 06:36:46;;;;;;;8.60;3.30;;;-0.90;99.90;;;;;;5035650;28;20283;-81
2022/02/12 06:39:13;;;;;;;7.85;3.08;;;-0.90;99.90;;;;;;5036917;28;20232;-84
2022/02/12 06:41:39;;;;;;;11.07;2.50;;;-0.90;99.90;;;;;;5025818;28;20671;-84
2022/02/12 06:44:06;;;;;;;7.63;2.90;;;-0.90;99.90;;;;;;5029630;28;20209;-84
2022/02/12 06:46:33;;;;;;;9.68;3.45;;;-0.90;99.90;;;;;;5033304;28;20242;-83
2022/02/12 06:49:00;;;;;;;9.80;2.30;;;-0.90;99.90;;;;;;5031125;28;20202;-83
2022/02/12 06:51:30;;;;;;;9.55;3.20;;;-0.80;99.90;;;;;;5028762;28;20291;-81
2022/02/12 06:53:58;;;;;;;5.13;2.90;;;-0.80;99.90;;;;;;5035625;28;20209;-80
2022/02/12 06:56:24;;;;;;;7.35;2.75;;;-0.80;99.90;;;;;;5036780;28;20233;-81
2022/02/12 06:58:54;;;;;;;9.75;4.22;;;-0.70;99.90;;;;;;5037361;28;20208;-81
2022/02/12 07:01:23;;;;;;;6.85;2.22;;;-0.70;99.90;;;;;;5032852;28;20215;-82
2022/02/12 07:03:49;;;;;;;6.75;3.05;;;-0.60;99.90;;;;;;5036487;28;20823;-81
2022/02/12 07:06:16;;;;;;;10.10;3.25;;;-0.60;99.90;;;;;;5040050;28;20227;-82
2022/02/12 07:08:43;;;;;;;6.15;2.75;;;-0.50;99.90;;;;;;5033291;28;20305;-82
2022/02/12 07:11:11;;;;;;;7.78;2.80;;;-0.40;99.90;;;;;;5037875;28;20198;-81
2022/02/12 07:13:38;;;;;;;6.68;2.70;;;-0.40;99.90;;;;;;5044227;28;20215;-83
2022/02/12 07:16:06;;;;;;;8.40;3.20;;;-0.30;99.90;;;;;;5051891;28;20229;-82
2022/02/12 07:18:33;;;;;;;7.82;3.20;;;-0.30;99.90;;;;;;5058023;28;20202;-82
2022/02/12 07:21:00;;;;;;;6.25;3.20;;;-0.20;99.90;;;;;;5035968;28;21991;-83
2022/02/12 07:23:26;;;;;;;14.93;4.00;;;-0.20;99.90;;;;;;5038069;28;20206;-83
2022/02/12 07:25:53;;;;;;;8.55;3.20;;;-0.10;99.90;;;;;;5034117;28;20239;-83
2022/02/12 07:28:21;;;;;;;8.93;3.50;;;0.00;99.90;;;;;;5031991;28;20216;-82
2022/02/12 07:30:49;;;;;;;6.60;3.33;;;0.00;99.90;;;;;;5036391;28;20202;-83
2022/02/12 07:33:16;;;;;;;9.48;3.03;;;0.10;99.90;;;;;;5035879;28;20288;-82
2022/02/12 07:35:43;;;;;;;6.70;3.17;;;0.20;99.90;;;;;;5033133;28;20328;-82
2022/02/12 07:38:09;;;;;;;6.93;2.55;;;0.30;99.90;;;;;;5038832;28;20205;-82
2022/02/12 07:40:36;;;;;;;6.75;2.70;;;0.40;99.90;;;;;;5033318;28;20225;-82
2022/02/12 07:43:03;;;;;;;8.90;2.63;;;0.50;99.90;;;;;;5033092;28;20251;-82
2022/02/12 07:45:32;;;;;;;7.50;2.35;;;0.60;99.90;;;;;;5037266;28;20319;-82
2022/02/12 07:47:59;;;;;;;8.50;3.33;;;0.60;99.90;;;;;;5029892;28;20202;-82
2022/02/12 07:50:26;;;;;;;11.30;2.50;;;0.80;99.90;;;;;;5031133;28;20282;-83
2022/02/12 07:52:53;;;;;;;5.53;3.08;;;0.90;99.90;;;;;;5031120;28;20661;-82
2022/02/12 07:55:20;;;;;;;8.48;3.05;;;1.00;99.90;;;;;;5032697;28;20737;-81
2022/02/12 07:57:48;;;;;;;7.38;3.03;;;1.10;99.90;;;;;;5025090;28;20210;-82
2022/02/12 08:00:16;;;;;;;7.60;2.50;;;1.30;99.90;;;;;;5043717;28;20213;-83
2022/02/12 08:02:45;;;;;;;7.93;2.90;;;1.40;99.90;;;;;;5047464;28;20205;-82
2022/02/12 08:05:12;;;;;;;7.75;2.53;;;1.50;99.90;;;;;;5035187;28;20640;-82
2022/02/12 08:07:39;;;;;;;8.02;2.92;;;1.60;99.90;;;;;;5038136;28;20201;-82
2022/02/12 08:12:48;;;;;;;8.07;2.50;;;1.80;99.90;;;;;;5031841;28;20520;-83
2022/02/12 08:15:15;;;;;;;6.45;2.05;;;2.00;99.90;;;;;;5038134;28;20469;-83
2022/02/12 08:17:41;;;;;;;9.23;2.70;;;2.10;99.90;;;;;;5039110;28;20209;-82
2022/02/12 08:20:11;;;;;;;10.77;3.05;;;2.20;99.90;;;;;;5038635;28;20480;-81
2022/02/12 08:22:38;;;;;;;11.10;2.63;;;2.30;99.90;;;;;;5038418;28;20281;-82
2022/02/12 08:25:06;;;;;;;6.67;2.17;;;2.30;99.90;;;;;;5038885;28;20484;-82
2022/02/12 08:27:33;;;;;;;6.73;2.93;;;2.40;99.90;;;;;;5039529;28;20527;-82
2022/02/12 08:30:01;;;;;;;7.43;4.30;;;2.50;99.90;;;;;;5038751;28;20455;-82
2022/02/12 08:32:28;;;;;;;6.43;2.60;;;2.50;99.90;;;;;;5039544;28;20463;-82
2022/02/12 08:34:55;;;;;;;7.00;2.30;;;2.60;99.90;;;;;;5038782;28;20504;-82
2022/02/12 08:37:25;;;;;;;14.63;3.20;;;2.70;99.90;;;;;;5039461;28;20480;-81
2022/02/12 08:39:52;;;;;;;7.57;2.90;;;2.80;99.90;;;;;;5039394;28;20523;-83
2022/02/12 08:42:20;;;;;;;8.33;2.23;;;2.90;99.90;;;;;;5040150;28;20531;-81
2022/02/12 08:44:47;;;;;;;13.70;3.37;;;3.00;99.90;;;;;;5038693;28;20492;-82
2022/02/12 08:47:14;;;;;;;5.60;2.60;;;3.00;99.90;;;;;;5039361;28;20453;-83
2022/02/12 08:49:41;;;;;;;10.23;2.40;;;3.10;99.90;;;;;;5039249;28;20519;-82
2022/02/12 08:52:08;;;;;;;19.83;3.30;;;3.20;99.90;;;;;;5040330;28;20456;-83
2022/02/12 08:54:37;;;;;;;7.03;2.40;;;3.30;99.90;;;;;;5038994;28;20564;-82
2022/02/12 08:57:04;;;;;;;7.80;2.47;;;3.50;99.90;;;;;;5039334;28;20498;-82
2022/02/12 08:59:31;;;;;;;7.23;2.40;;;3.50;99.90;;;;;;5039959;28;20449;-84
2022/02/12 09:01:58;;;;;;;6.13;2.70;;;3.50;99.90;;;;;;5039408;28;20975;-82
2022/02/12 09:04:25;;;;;;;10.50;2.63;;;3.70;99.90;;;;;;5040168;28;20483;-82
2022/02/12 09:06:52;;;;;;;7.57;2.30;;;3.80;99.90;;;;;;5040249;28;20460;-82
2022/02/12 09:09:20;;;;;;;5.33;2.20;;;3.90;99.90;;;;;;5049927;28;20459;-84
2022/02/12 09:11:48;;;;;;;7.63;3.07;;;4.00;99.90;;;;;;5052377;28;20450;-83
2022/02/12 09:14:15;;;;;;;11.10;2.90;;;4.20;99.90;;;;;;5038794;28;20453;-83
2022/02/12 09:16:43;;;;;;;9.23;3.20;;;4.30;99.90;;;;;;5039716;28;20964;-83
2022/02/12 09:19:10;;;;;;;11.70;2.97;;;4.30;99.90;;;;;;5038350;28;20456;-82
2022/02/12 09:21:37;;;;;;;11.17;2.93;;;4.60;99.90;;;;;;5038627;28;20485;-83
2022/02/12 09:24:05;;;;;;;9.70;2.90;;;4.90;99.90;;;;;;5038297;28;20864;-83
2022/02/12 09:26:32;;;;;;;7.33;2.43;;;5.20;99.90;;;;;;5037151;28;20507;-82
2022/02/12 09:29:02;;;;;;;14.07;3.53;;;5.30;99.90;;;;;;5037761;28;20565;-83
2022/02/12 09:31:28;;;;;;;7.83;2.60;;;5.70;99.90;;;;;;5038213;28;20449;-83
2022/02/12 09:33:55;;;;;;;9.00;2.53;;;6.10;99.90;;;;;;5036012;28;20587;-81
2022/02/12 09:36:22;;;;;;;15.87;3.30;;;6.20;99.90;;;;;;5037913;28;20498;-81
2022/02/12 09:38:49;;;;;;;8.47;2.33;;;6.20;99.90;;;;;;5038481;28;21022;-82
2022/02/12 09:41:20;;;;;;;10.73;3.50;;;6.40;99.90;;;;;;5037678;28;20573;-83
2022/02/12 09:43:49;;;;;;;15.80;3.90;;;6.90;99.90;;;;;;5038501;28;20836;-82
2022/02/12 09:46:57;;;;;;;7.33;2.33;;;7.80;99.90;;;;;;5037407;28;20484;-81
2022/02/12 09:49:24;;;;;;;5.47;2.27;;;8.00;99.90;;;;;;5026664;28;20553;-82
2022/02/12 09:51:53;;;;;;;6.80;2.60;;;8.20;99.90;;;;;;5041334;28;20455;-83
2022/02/12 09:54:22;;;;;;;9.17;2.30;;;7.90;99.90;;;;;;5041282;28;20452;-81
2022/02/12 09:56:49;;;;;;;9.70;3.17;;;7.80;99.90;;;;;;5027391;28;20459;-80
2022/02/12 09:59:16;;;;;;;9.13;2.80;;;8.20;99.90;;;;;;5040513;28;20460;-82
2022/02/12 10:01:44;;;;;;;8.40;2.53;;;7.80;99.90;;;;;;5034766;28;20535;-82
2022/02/12 10:04:16;;;;;;;8.17;3.13;;;8.00;99.90;;;;;;5035257;28;20451;-82
2022/02/12 10:06:44;;;;;;;6.40;2.90;;;8.10;99.90;;;;;;5032730;28;20998;-82
2022/02/12 10:09:11;;;;;;;8.80;2.90;;;8.40;99.90;;;;;;5038618;28;20464;-82
2022/02/12 10:11:47;;;;;;;13.73;3.10;;;8.50;99.90;;;;;;5037999;28;20452;-82
2022/02/12 10:14:16;;;;;;;10.47;4.00;;;8.20;99.90;;;;;;5034527;28;20451;-82
2022/02/12 10:16:52;;;;;;;5.33;2.90;;;8.00;99.90;;;;;;5030858;28;20525;-81
2022/02/12 10:19:19;;;;;;;9.80;2.57;;;8.30;99.90;;;;;;5040863;28;20456;-83
2022/02/12 10:22:06;;;;;;;10.00;2.70;;;8.40;99.90;;;;;;5038429;28;20477;-82
2022/02/12 10:24:52;;;;;;;6.47;2.57;;;8.40;99.90;;;;;;5036905;28;20487;-84
2022/02/12 10:27:21;;;;;;;8.57;2.57;;;8.50;99.90;;;;;;5041938;28;20515;-82
2022/02/12 10:29:48;;;;;;;10.03;3.00;;;8.60;99.90;;;;;;5045313;28;20452;-82
2022/02/12 10:32:20;;;;;;;7.70;2.23;;;8.60;99.90;;;;;;5038566;28;20445;-83
2022/02/12 10:34:48;;;;;;;6.30;2.37;;;8.90;99.90;;;;;;5038218;28;20477;-81
2022/02/12 10:37:16;;;;;;;8.43;2.70;;;8.90;99.90;;;;;;5039750;28;20522;-81
2022/02/12 10:39:53;;;;;;;7.63;2.50;;;9.10;99.90;;;;;;5037011;28;20548;-82
2022/02/12 10:42:21;;;;;;;9.00;2.80;;;9.30;99.90;;;;;;5027805;28;20477;-83
2022/02/12 10:44:48;;;;;;;5.00;1.70;;;9.70;99.90;;;;;;5039351;28;20568;-80
2022/02/12 10:47:15;;;;;;;7.57;2.13;;;9.90;99.90;;;;;;5039281;28;20459;-81
2022/02/12 10:49:44;;;;;;;14.67;7.37;;;10.50;99.90;;;;;;5040268;28;20460;-83
2022/02/12 10:52:11;;;;;;;9.67;3.60;;;11.00;99.90;;;;;;5042002;28;20470;-81
2022/02/12 10:54:42;;;;;;;6.70;2.73;;;11.50;99.90;;;;;;5038765;28;20467;-81
2022/02/12 10:57:09;;;;;;;8.90;3.37;;;12.50;99.90;;;;;;5041591;28;20474;-81
2022/02/12 10:59:38;;;;;;;12.00;5.33;;;13.40;98.50;;;;;;5036818;28;20459;-81
2022/02/12 11:02:08;;;;;;;6.30;2.27;;;14.00;95.60;;;;;;5038311;28;20923;-81
2022/02/12 11:04:38;;;;;;;7.80;2.50;;;15.70;89.00;;;;;;5038259;28;20583;-80
2022/02/12 11:07:07;;;;;;;7.00;2.00;;;16.90;81.80;;;;;;5044545;28;20460;-81
2022/02/12 11:09:34;;;;;;;5.80;1.90;;;15.60;71.00;;;;;;5039301;28;20844;-80
2022/02/12 11:12:05;;;;;;;5.37;2.17;;;15.20;67.50;;;;;;5033513;28;20454;-80
2022/02/12 11:14:33;;;;;;;6.23;1.87;;;15.40;65.90;;;;;;5037200;28;20516;-79
2022/02/12 11:17:03;;;;;;;9.33;2.23;;;16.40;61.90;;;;;;5039444;28;20473;-82
2022/02/12 11:19:32;;;;;;;6.23;2.13;;;17.50;59.40;;;;;;5038228;28;20879;-81
2022/02/12 11:21:59;;;;;;;6.37;1.97;;;17.30;56.90;;;;;;5035215;28;20864;-80
2022/02/12 11:24:39;;;;;;;4.27;1.63;;;17.50;55.10;;;;;;5037778;28;20536;-84
2022/02/12 11:27:22;;;;;;;6.90;2.17;;;18.30;55.70;;;;;;5030328;28;20455;-80
2022/02/12 11:29:51;;;;;;;5.70;1.73;;;18.00;53.80;;;;;;5037479;28;20484;-81
2022/02/12 11:32:21;;;;;;;8.80;2.63;;;18.50;52.90;;;;;;5037858;28;20450;-82
2022/02/12 11:35:17;;;;;;;7.87;2.67;;;17.60;51.50;;;;;;5035346;28;20483;-80
2022/02/12 11:37:46;;;;;;;5.10;1.60;;;18.40;51.90;;;;;;5039077;28;20488;-79
2022/02/12 11:40:17;;;;;;;6.00;2.60;;;18.70;50.70;;;;;;5040627;28;20449;-81
2022/02/12 11:42:46;;;;;;;8.60;2.13;;;18.30;50.60;;;;;;5038205;28;20590;-81
2022/02/12 11:45:21;;;;;;;8.50;2.20;;;19.90;49.90;;;;;;5036971;28;20476;-80
2022/02/12 11:48:08;;;;;;;6.17;1.90;;;19.10;48.20;;;;;;5037882;28;20448;-81
2022/02/12 11:50:43;;;;;;;6.07;2.20;;;18.40;48.10;;;;;;5034324;28;20456;-80
2022/02/12 11:53:35;;;;;;;4.23;1.60;;;17.10;48.90;;;;;;5035365;28;20440;-80
2022/02/12 11:56:05;;;;;;;8.13;2.30;;;18.60;49.40;;;;;;5025438;28;20469;-79
2022/02/12 11:59:09;;;;;;;7.20;2.07;;;17.90;49.00;;;;;;5025614;28;20449;-79
2022/02/12 12:01:50;;;;;;;9.80;2.07;;;19.10;50.80;;;;;;5039329;28;20482;-81
2022/02/12 12:04:19;;;;;;;8.90;2.00;;;19.10;49.90;;;;;;5034622;28;20458;-80
2022/02/12 12:07:11;;;;;;;7.47;2.50;;;19.30;49.30;;;;;;5037550;28;20564;-81
2022/02/12 12:09:40;;;;;;;7.00;2.40;;;20.30;49.20;;;;;;5036995;28;20801;-81
2022/02/12 12:12:16;;;;;;;5.77;1.70;;;20.40;47.50;;;;;;5025432;28;20459;-80
2022/02/12 12:14:44;;;;;;;7.40;1.97;;;20.90;46.70;;;;;;5026700;28;20544;-82
2022/02/12 12:17:10;;;;;;;5.17;1.67;;;21.20;46.20;;;;;;5039035;28;20460;-82
2022/02/12 12:19:39;;;;;;;5.10;1.90;;;20.60;44.70;;;;;;5025770;28;20517;-82
2022/02/12 12:22:07;;;;;;;5.27;2.10;;;21.90;46.50;;;;;;5038475;28;21034;-82
2022/02/12 12:24:34;;;;;;;5.90;2.10;;;19.80;46.30;;;;;;5037759;28;20538;-82
2022/02/12 12:27:04;;;;;;;5.83;2.70;;;21.30;46.50;;;;;;5043636;28;20551;-82
2022/02/12 12:32:18;;;;;;;4.33;1.97;;;20.50;44.70;;;;;;5027520;28;20563;-82
2022/02/12 12:34:50;;;;;;;5.73;2.37;;;20.70;44.30;;;;;;5038472;28;20478;-82
2022/02/12 12:37:18;;;;;;;5.80;2.63;;;19.00;44.70;;;;;;5031299;28;20486;-82
2022/02/12 12:39:44;;;;;;;5.37;2.00;;;18.50;47.40;;;;;;5036017;28;20461;-81
2022/02/12 12:42:16;;;;;;;4.00;1.57;;;19.40;46.30;;;;;;5035595;28;21052;-81
2022/02/12 12:44:57;;;;;;;4.87;1.83;;;19.30;44.20;;;;;;5036921;28;20480;-83
2022/02/12 12:47:24;;;;;;;5.90;1.83;;;17.90;44.90;;;;;;5028589;28;20449;-81
2022/02/12 12:49:54;;;;;;;4.93;1.90;;;17.60;46.10;;;;;;5038409;28;20453;-81
2022/02/12 12:52:23;;;;;;;6.13;2.10;;;17.80;45.50;;;;;;5037113;28;20456;-84
2022/02/12 12:54:55;;;;;;;6.77;2.53;;;17.20;45.80;;;;;;5037879;28;20571;-82
2022/02/12 12:57:28;;;;;;;7.90;2.03;;;14.90;46.80;;;;;;5030059;28;20556;-81
2022/02/12 12:59:57;;;;;;;5.83;2.23;;;14.40;50.10;;;;;;5038747;28;20475;-82
2022/02/12 13:02:24;;;;;;;77.83;37.03;;;14.80;49.30;;;;;;5033022;28;20487;-83
2022/02/12 13:04:54;;;;;;;9.77;3.77;;;14.30;48.20;;;;;;5016806;28;20481;-82
2022/02/12 13:07:22;;;;;;;6.57;2.40;;;14.50;50.20;;;;;;5032051;28;20455;-82